Time;durP1;ratioP1;P1;durP2;ratioP2;P2;SDS_P1;SDS_P2;PMS_P1;PMS_P2;Temp;Humidity;BMP_temperature;BMP_pressure;BME280_temperature;BME280_humidity;BME280_pressure;Samples;Min_cycle;Max_cycle;Signal;HPM_P1;HPM_P2
2022/10/23 00:00:55;;;;;;;;;;;21.60;99.90;;;;;;4990867;28;19917;-67
2022/10/23 00:03:22;;;;;;;;;;;21.60;99.90;;;;;;4991089;28;20264;-66
2022/10/23 00:05:49;;;;;;;;;;;21.50;99.90;;;;;;4990865;28;19925;-66
2022/10/23 00:08:15;;;;;;;;;;;21.40;99.90;;;;;;5004817;28;19914;-66
2022/10/23 00:10:42;;;;;;;;;;;21.20;99.90;;;;;;5035020;28;19998;-67
2022/10/23 00:13:09;;;;;;;;;;;21.00;99.90;;;;;;4990547;28;19918;-67
2022/10/23 00:15:36;;;;;;;;;;;20.90;99.90;;;;;;4990867;28;19913;-66
2022/10/23 00:18:03;;;;;;;;;;;20.90;99.90;;;;;;4991071;28;19913;-66
2022/10/23 00:20:30;;;;;;;;;;;20.70;99.90;;;;;;4990760;28;20370;-66
2022/10/23 00:22:56;;;;;;;;;;;20.40;99.90;;;;;;4990675;28;19925;-66
2022/10/23 00:25:23;;;;;;;;;;;20.40;99.90;;;;;;4990905;28;19929;-67
2022/10/23 00:27:50;;;;;;;;;;;20.50;99.90;;;;;;4991607;28;20291;-67
2022/10/23 00:30:16;;;;;;;;;;;20.70;99.90;;;;;;4991590;28;20426;-66
2022/10/23 00:32:43;;;;;;;;;;;20.90;99.90;;;;;;4991865;28;19938;-67
2022/10/23 00:35:10;;;;;;;;;;;20.90;99.90;;;;;;4991597;28;20177;-67
2022/10/23 00:37:36;;;;;;;;;;;21.00;99.90;;;;;;4992104;28;19913;-67
2022/10/23 00:40:03;;;;;;;;;;;21.10;99.90;;;;;;4989900;28;20429;-68
2022/10/23 00:42:30;;;;;;;;;;;21.40;99.90;;;;;;4992354;28;19914;-67
2022/10/23 00:45:15;;;;;;;;;;;21.60;99.90;;;;;;4992162;28;19925;-66
2022/10/23 00:47:42;;;;;;;;;;;21.70;99.90;;;;;;4991109;28;20001;-66
2022/10/23 00:50:08;;;;;;;;;;;21.70;99.90;;;;;;4992240;28;19996;-66
2022/10/23 00:52:38;;;;;;;;;;;21.70;99.90;;;;;;4992043;28;20357;-66
2022/10/23 00:55:05;;;;;;;;;;;22.00;99.90;;;;;;4991958;28;19933;-66
2022/10/23 00:57:31;;;;;;;;;;;22.30;99.90;;;;;;4992073;28;19910;-66
2022/10/23 00:59:58;;;;;;;;;;;22.40;99.90;;;;;;4991575;28;19910;-66
2022/10/23 01:02:24;;;;;;;;;;;22.50;99.90;;;;;;4991654;28;19957;-67
2022/10/23 01:04:51;;;;;;;;;;;22.50;99.90;;;;;;4991502;28;19918;-66
2022/10/23 01:07:22;;;;;;;;;;;22.40;99.90;;;;;;4991826;28;20309;-66
2022/10/23 01:09:51;;;;;;;;;;;22.40;99.90;;;;;;4991561;28;20034;-66
2022/10/23 01:12:50;;;;;;;;;;;22.80;99.90;;;;;;4991711;28;20382;-66
2022/10/23 01:15:20;;;;;;;;;;;22.70;99.90;;;;;;4969302;28;19910;-66
2022/10/23 01:18:00;;;;;;;;;;;22.60;99.90;;;;;;4991578;28;20289;-66
2022/10/23 01:20:27;;;;;;;;;;;22.70;99.90;;;;;;4992114;28;20281;-66
2022/10/23 01:23:05;;;;;;;;;;;23.00;99.90;;;;;;4991611;28;20051;-66
2022/10/23 01:26:01;;;;;;;;;;;23.30;99.90;;;;;;4991327;28;20370;-66
2022/10/23 01:28:33;;;;;;;;;;;23.30;99.90;;;;;;4955599;28;20001;-66
2022/10/23 01:31:01;;;;;;;;;;;23.40;99.90;;;;;;4991467;28;20004;-66
2022/10/23 01:33:32;;;;;;;;;;;23.50;99.90;;;;;;4991327;28;19909;-66
2022/10/23 01:36:00;;;;;;;;;;;23.50;99.90;;;;;;4991376;28;19917;-66
2022/10/23 01:38:30;;;;;;;;;;;23.60;99.90;;;;;;4991544;28;19937;-66
2022/10/23 01:40:57;;;;;;;;;;;23.60;99.90;;;;;;4991193;28;20004;-66
2022/10/23 01:43:31;;;;;;;;;;;23.30;99.90;;;;;;4991029;28;19910;-66
2022/10/23 01:46:01;;;;;;;;;;;23.40;99.90;;;;;;4991032;28;19972;-66
2022/10/23 01:48:28;;;;;;;;;;;23.80;99.90;;;;;;4990999;28;20362;-66
2022/10/23 01:50:57;;;;;;;;;;;24.30;99.90;;;;;;4991093;28;20391;-66
2022/10/23 01:53:25;;;;;;;;;;;24.70;99.90;;;;;;4991202;28;19913;-66
2022/10/23 01:55:53;;;;;;;;;;;25.20;99.90;;;;;;4991442;28;20276;-66
2022/10/23 01:58:20;;;;;;;;;;;25.60;99.90;;;;;;4990840;28;19910;-66
2022/10/23 02:00:48;;;;;;;;;;;25.70;99.90;;;;;;4990824;28;19979;-67
2022/10/23 02:03:16;;;;;;;;;;;25.50;99.90;;;;;;4991070;28;19932;-66
2022/10/23 02:05:43;;;;;;;;;;;25.20;99.90;;;;;;4990813;28;19918;-66
2022/10/23 02:08:10;;;;;;;;;;;24.80;99.90;;;;;;4990997;28;19960;-67
2022/10/23 02:11:03;;;;;;;;;;;24.50;99.90;;;;;;4991053;28;20278;-66
2022/10/23 02:13:33;;;;;;;;;;;24.30;99.90;;;;;;4988513;28;19914;-67
2022/10/23 02:16:22;;;;;;;;;;;24.00;99.90;;;;;;4990642;28;20021;-66
2022/10/23 02:18:58;;;;;;;;;;;23.60;99.90;;;;;;4990803;28;19913;-66
2022/10/23 02:21:28;;;;;;;;;;;23.50;99.90;;;;;;4990579;28;20374;-66
2022/10/23 02:24:15;;;;;;;;;;;23.30;99.90;;;;;;4973326;28;19932;-66
2022/10/23 02:26:52;;;;;;;;;;;23.20;99.90;;;;;;4990407;28;20381;-67
2022/10/23 02:29:22;;;;;;;;;;;23.20;99.90;;;;;;4990671;28;19910;-66
2022/10/23 02:31:49;;;;;;;;;;;23.10;99.90;;;;;;4991038;28;19910;-66
2022/10/23 02:34:16;;;;;;;;;;;23.10;99.90;;;;;;4990629;28;19910;-66
2022/10/23 02:36:42;;;;;;;;;;;23.10;99.90;;;;;;4990375;28;20358;-67
2022/10/23 02:39:09;;;;;;;;;;;23.10;99.90;;;;;;4990595;28;19914;-66
2022/10/23 02:41:56;;;;;;;;;;;23.10;99.90;;;;;;4990304;28;20362;-67
2022/10/23 02:44:37;;;;;;;;;;;23.20;99.90;;;;;;4989680;28;19968;-66
2022/10/23 02:47:19;;;;;;;;;;;23.40;99.90;;;;;;4990492;28;19914;-67
2022/10/23 02:50:04;;;;;;;;;;;23.90;99.90;;;;;;4990309;28;20273;-67
2022/10/23 02:52:33;;;;;;;;;;;24.30;99.90;;;;;;4990523;28;20331;-66
2022/10/23 02:55:00;;;;;;;;;;;24.50;99.90;;;;;;4990442;28;20000;-66
2022/10/23 02:57:27;;;;;;;;;;;24.60;99.90;;;;;;4990515;28;19910;-66
2022/10/23 03:00:00;;;;;;;;;;;24.60;99.90;;;;;;4990174;28;20273;-66
2022/10/23 03:02:32;;;;;;;;;;;24.60;99.90;;;;;;4990077;28;20369;-67
2022/10/23 03:04:59;;;;;;;;;;;24.40;99.90;;;;;;4989869;28;20350;-67
2022/10/23 03:07:26;;;;;;;;;;;24.40;99.90;;;;;;4990099;28;19910;-67
2022/10/23 03:09:53;;;;;;;;;;;24.30;99.90;;;;;;4990496;28;19909;-67
2022/10/23 03:12:19;;;;;;;;;;;24.00;99.90;;;;;;4993427;28;19962;-66
2022/10/23 03:14:46;;;;;;;;;;;23.80;99.90;;;;;;4975869;28;19916;-66
2022/10/23 03:17:12;;;;;;;;;;;23.60;99.90;;;;;;4993388;28;20290;-65
2022/10/23 03:19:39;;;;;;;;;;;23.40;99.90;;;;;;4993642;28;20485;-66
2022/10/23 03:22:06;;;;;;;;;;;23.10;99.90;;;;;;4993559;28;19927;-66
2022/10/23 03:24:32;;;;;;;;;;;22.80;99.90;;;;;;4993239;28;19978;-66
2022/10/23 03:26:59;;;;;;;;;;;22.60;99.90;;;;;;4993448;28;20422;-66
2022/10/23 03:29:26;;;;;;;;;;;22.50;99.90;;;;;;4993082;28;20110;-66
2022/10/23 03:31:54;;;;;;;;;;;22.40;99.90;;;;;;4993111;28;19910;-66
2022/10/23 03:34:21;;;;;;;;;;;22.20;99.90;;;;;;4993068;28;19910;-66
2022/10/23 03:36:47;;;;;;;;;;;22.10;99.90;;;;;;4993097;28;19909;-66
2022/10/23 03:39:14;;;;;;;;;;;21.90;99.90;;;;;;4993404;28;20005;-66
2022/10/23 03:41:40;;;;;;;;;;;21.80;99.90;;;;;;4993439;28;20376;-66
2022/10/23 03:44:07;;;;;;;;;;;21.70;99.90;;;;;;4975291;28;19922;-67
2022/10/23 03:46:34;;;;;;;;;;;21.60;99.90;;;;;;4993560;28;19991;-66
2022/10/23 03:49:00;;;;;;;;;;;21.50;99.90;;;;;;4992761;28;20373;-67
2022/10/23 03:51:27;;;;;;;;;;;21.30;99.90;;;;;;4992573;28;19909;-67
2022/10/23 03:53:54;;;;;;;;;;;21.20;99.90;;;;;;4992753;28;19913;-66
2022/10/23 03:56:21;;;;;;;;;;;21.20;99.90;;;;;;4992699;28;19921;-67
2022/10/23 03:58:48;;;;;;;;;;;21.20;99.90;;;;;;4992725;28;19967;-67
2022/10/23 04:01:14;;;;;;;;;;;21.40;99.90;;;;;;4992939;28;19994;-67
2022/10/23 04:03:41;;;;;;;;;;;21.50;99.90;;;;;;4992703;28;19910;-67
2022/10/23 04:06:08;;;;;;;;;;;21.60;99.90;;;;;;4992403;28;19922;-67
2022/10/23 04:08:34;;;;;;;;;;;21.60;99.90;;;;;;4992833;28;19976;-67
2022/10/23 04:11:01;;;;;;;;;;;21.60;99.90;;;;;;4992695;28;20381;-67
2022/10/23 04:13:28;;;;;;;;;;;21.40;99.90;;;;;;4992906;28;19910;-67
2022/10/23 04:15:54;;;;;;;;;;;21.20;99.90;;;;;;4992701;28;20290;-67
2022/10/23 04:18:21;;;;;;;;;;;21.10;99.90;;;;;;4992793;28;20121;-67
2022/10/23 04:20:48;;;;;;;;;;;21.00;99.90;;;;;;4992612;28;19917;-66
2022/10/23 04:23:15;;;;;;;;;;;20.90;99.90;;;;;;4992560;28;19910;-67
2022/10/23 04:25:42;;;;;;;;;;;20.70;99.90;;;;;;4992182;28;20388;-67
2022/10/23 04:28:08;;;;;;;;;;;20.70;99.90;;;;;;4992275;28;19909;-67
2022/10/23 04:30:35;;;;;;;;;;;20.60;99.90;;;;;;4992298;28;19910;-67
2022/10/23 04:33:01;;;;;;;;;;;20.60;99.90;;;;;;4992614;28;19910;-67
2022/10/23 04:35:28;;;;;;;;;;;20.50;99.90;;;;;;4992276;28;20278;-66
2022/10/23 04:37:55;;;;;;;;;;;20.50;99.90;;;;;;4974857;28;20342;-67
2022/10/23 04:40:21;;;;;;;;;;;20.40;99.90;;;;;;4992433;28;19917;-66
2022/10/23 04:42:48;;;;;;;;;;;20.40;99.90;;;;;;4992303;28;19972;-67
2022/10/23 04:45:15;;;;;;;;;;;20.40;99.90;;;;;;4991932;28;19922;-67
2022/10/23 04:47:41;;;;;;;;;;;20.30;99.90;;;;;;4992118;28;19917;-67
2022/10/23 04:50:08;;;;;;;;;;;20.30;99.90;;;;;;4974406;28;20313;-67
2022/10/23 04:52:34;;;;;;;;;;;20.30;99.90;;;;;;4992216;28;19910;-67
2022/10/23 04:55:01;;;;;;;;;;;20.30;99.90;;;;;;4992169;28;19955;-67
2022/10/23 04:57:28;;;;;;;;;;;20.30;99.90;;;;;;4992088;28;20393;-67
2022/10/23 04:59:54;;;;;;;;;;;20.30;99.90;;;;;;4992083;28;19909;-67
2022/10/23 05:02:23;;;;;;;;;;;20.20;99.90;;;;;;4992096;28;19949;-67
2022/10/23 05:04:49;;;;;;;;;;;20.30;99.90;;;;;;4991986;28;19918;-66
2022/10/23 05:07:16;;;;;;;;;;;20.20;99.90;;;;;;4991718;28;19910;-67
2022/10/23 05:09:43;;;;;;;;;;;20.20;99.90;;;;;;4991840;28;19913;-66
2022/10/23 05:12:09;;;;;;;;;;;20.20;99.90;;;;;;4992150;28;20373;-67
2022/10/23 05:14:36;;;;;;;;;;;20.20;99.90;;;;;;4991756;28;19976;-67
2022/10/23 05:17:07;;;;;;;;;;;20.20;99.90;;;;;;4992204;28;20312;-66
2022/10/23 05:19:36;;;;;;;;;;;20.20;99.90;;;;;;4991711;28;19945;-67
2022/10/23 05:22:04;;;;;;;;;;;20.30;99.90;;;;;;4991597;28;19910;-66
2022/10/23 05:24:30;;;;;;;;;;;20.30;99.90;;;;;;4991657;28;19909;-66
2022/10/23 05:26:57;;;;;;;;;;;20.40;99.90;;;;;;4991408;28;19921;-67
2022/10/23 05:29:24;;;;;;;;;;;20.40;99.90;;;;;;4991703;28;19910;-66
2022/10/23 05:31:53;;;;;;;;;;;20.30;99.90;;;;;;4991743;28;19960;-66
2022/10/23 05:34:21;;;;;;;;;;;20.30;99.90;;;;;;4990925;28;19914;-66
2022/10/23 05:36:48;;;;;;;;;;;20.30;99.90;;;;;;4991433;28;19914;-66
2022/10/23 05:39:15;;;;;;;;;;;20.20;99.90;;;;;;4991495;28;19910;-66
2022/10/23 05:41:41;;;;;;;;;;;20.20;99.90;;;;;;4991402;28;19917;-67
2022/10/23 05:44:08;;;;;;;;;;;20.30;99.90;;;;;;4991335;28;19922;-66
2022/10/23 05:46:39;;;;;;;;;;;20.30;99.90;;;;;;4991353;28;19941;-67
2022/10/23 05:49:06;;;;;;;;;;;20.30;99.90;;;;;;4991378;28;19910;-66
2022/10/23 05:51:35;;;;;;;;;;;20.40;99.90;;;;;;4991100;28;19932;-66
2022/10/23 05:54:02;;;;;;;;;;;20.30;99.90;;;;;;4991333;28;19910;-66
2022/10/23 05:56:29;;;;;;;;;;;20.40;99.90;;;;;;4991187;28;19952;-66
2022/10/23 05:58:55;;;;;;;;;;;20.30;99.90;;;;;;4991187;28;20377;-67
2022/10/23 06:01:22;;;;;;;;;;;20.30;99.90;;;;;;4991152;28;19916;-66
2022/10/23 06:03:50;;;;;;;;;;;20.30;99.90;;;;;;4991050;28;19917;-66
2022/10/23 06:06:16;;;;;;;;;;;20.40;99.90;;;;;;4990262;28;19922;-67
2022/10/23 06:08:43;;;;;;;;;;;20.40;99.90;;;;;;4990750;28;20035;-67
2022/10/23 06:11:11;;;;;;;;;;;20.40;99.90;;;;;;4991034;28;20001;-66
2022/10/23 06:13:38;;;;;;;;;;;20.40;99.90;;;;;;4990981;28;20254;-67
2022/10/23 06:16:16;;;;;;;;;;;20.40;99.90;;;;;;4990703;28;19998;-66
2022/10/23 06:18:43;;;;;;;;;;;20.50;99.90;;;;;;4990870;28;19910;-67
2022/10/23 06:21:10;;;;;;;;;;;20.50;99.90;;;;;;4990637;28;19917;-66
2022/10/23 06:23:37;;;;;;;;;;;20.50;99.90;;;;;;4990624;28;19949;-66
2022/10/23 06:26:05;;;;;;;;;;;20.50;99.90;;;;;;4990658;28;20368;-66
2022/10/23 06:28:32;;;;;;;;;;;20.50;99.90;;;;;;4973282;28;20050;-67
2022/10/23 06:30:58;;;;;;;;;;;20.50;99.90;;;;;;4990624;28;20320;-67
2022/10/23 06:33:25;;;;;;;;;;;20.50;99.90;;;;;;4990440;28;19963;-66
2022/10/23 06:35:54;;;;;;;;;;;20.50;99.90;;;;;;4990336;28;20281;-68
2022/10/23 06:38:21;;;;;;;;;;;20.50;99.90;;;;;;4973289;28;19910;-67
2022/10/23 06:40:54;;;;;;;;;;;20.50;99.90;;;;;;4990613;28;19914;-69
2022/10/23 06:43:21;;;;;;;;;;;20.50;99.90;;;;;;4990410;28;20320;-68
2022/10/23 06:45:48;;;;;;;;;;;20.60;99.90;;;;;;4989034;28;19926;-66
2022/10/23 06:48:15;;;;;;;;;;;20.50;99.90;;;;;;4990315;28;19917;-66
2022/10/23 06:50:41;;;;;;;;;;;20.50;99.90;;;;;;4990390;28;19910;-65
2022/10/23 06:53:08;;;;;;;;;;;20.50;99.90;;;;;;4990180;28;19910;-66
2022/10/23 06:55:35;;;;;;;;;;;20.60;99.90;;;;;;4990238;28;19910;-67
2022/10/23 06:58:01;;;;;;;;;;;20.60;99.90;;;;;;4988353;28;20358;-67
2022/10/23 07:00:28;;;;;;;;;;;20.60;99.90;;;;;;4989524;28;19955;-67
2022/10/23 07:02:55;;;;;;;;;;;20.60;99.90;;;;;;4990038;28;19910;-67
2022/10/23 07:05:21;;;;;;;;;;;20.60;99.90;;;;;;4990012;28;19918;-67
2022/10/23 07:07:48;;;;;;;;;;;20.60;99.90;;;;;;4989979;28;19910;-67
2022/10/23 07:10:15;;;;;;;;;;;20.50;99.90;;;;;;4989981;28;19914;-67
2022/10/23 07:12:42;;;;;;;;;;;20.40;99.90;;;;;;4990151;28;19906;-67
2022/10/23 07:15:09;;;;;;;;;;;20.40;99.90;;;;;;4989851;28;19910;-67
2022/10/23 07:17:36;;;;;;;;;;;20.30;99.90;;;;;;4989991;28;20219;-67
2022/10/23 07:20:02;;;;;;;;;;;20.30;99.90;;;;;;4990004;28;19910;-67
2022/10/23 07:22:29;;;;;;;;;;;20.20;99.90;;;;;;4989888;28;19910;-67
2022/10/23 07:24:56;;;;;;;;;;;20.20;99.90;;;;;;4989759;28;19922;-67
2022/10/23 07:27:22;;;;;;;;;;;20.10;99.90;;;;;;4979767;28;19925;-64
2022/10/23 07:29:50;;;;;;;;;;;20.00;99.90;;;;;;4986766;28;19917;-65
2022/10/23 07:32:16;;;;;;;;;;;20.00;99.90;;;;;;4988254;28;19914;-65
2022/10/23 07:34:43;;;;;;;;;;;19.90;99.90;;;;;;4988774;28;19909;-65
2022/10/23 07:37:10;;;;;;;;;;;19.90;99.90;;;;;;4986862;28;19910;-65
2022/10/23 07:39:36;;;;;;;;;;;19.80;99.90;;;;;;4980154;28;19985;-66
2022/10/23 07:42:03;;;;;;;;;;;19.80;99.90;;;;;;4988567;28;19917;-64
2022/10/23 07:44:30;;;;;;;;;;;19.80;99.90;;;;;;4989167;28;19922;-66
2022/10/23 07:46:56;;;;;;;;;;;19.70;99.90;;;;;;4988955;28;19944;-66
2022/10/23 07:49:23;;;;;;;;;;;19.70;99.90;;;;;;4970344;28;19914;-67
2022/10/23 07:51:51;;;;;;;;;;;19.70;99.90;;;;;;4982176;28;19910;-66
2022/10/23 07:54:18;;;;;;;;;;;19.60;99.90;;;;;;4988181;28;19921;-66
2022/10/23 07:56:44;;;;;;;;;;;19.50;99.90;;;;;;4990738;28;20416;-66
2022/10/23 07:59:12;;;;;;;;;;;19.50;99.90;;;;;;4974861;28;19914;-66
2022/10/23 08:01:38;;;;;;;;;;;19.40;99.90;;;;;;4973195;28;19911;-66
2022/10/23 08:04:05;;;;;;;;;;;19.40;99.90;;;;;;4972759;28;20305;-67
2022/10/23 08:06:34;;;;;;;;;;;19.30;99.90;;;;;;4972614;28;19962;-67
2022/10/23 08:09:00;;;;;;;;;;;19.20;99.90;;;;;;4972901;28;19984;-67
2022/10/23 08:11:29;;;;;;;;;;;19.20;99.90;;;;;;4973395;28;19910;-65
2022/10/23 08:13:57;;;;;;;;;;;19.20;99.90;;;;;;4972894;28;19914;-66
2022/10/23 08:16:24;;;;;;;;;;;19.10;99.90;;;;;;4972809;28;19914;-66
2022/10/23 08:18:51;;;;;;;;;;;19.10;99.90;;;;;;4985633;28;19949;-68
2022/10/23 08:21:18;;;;;;;;;;;19.10;99.90;;;;;;4991566;28;19910;-65
2022/10/23 08:23:46;;;;;;;;;;;19.00;99.90;;;;;;4973422;28;20147;-65
2022/10/23 08:26:13;;;;;;;;;;;19.10;99.90;;;;;;4991620;28;19918;-63
2022/10/23 08:28:40;;;;;;;;;;;19.00;99.90;;;;;;4978949;28;19977;-65
2022/10/23 08:31:07;;;;;;;;;;;19.10;99.90;;;;;;4972584;28;19911;-64
2022/10/23 08:33:34;;;;;;;;;;;19.10;99.90;;;;;;4971996;28;19918;-68
2022/10/23 08:36:01;;;;;;;;;;;19.00;99.90;;;;;;4972501;28;19914;-66
2022/10/23 08:38:27;;;;;;;;;;;19.00;99.90;;;;;;4972319;28;19933;-66
2022/10/23 08:40:54;;;;;;;;;;;19.00;99.90;;;;;;4972511;28;20290;-64
2022/10/23 08:43:27;;;;;;;;;;;19.00;99.90;;;;;;4972136;28;19949;-65
2022/10/23 08:45:56;;;;;;;;;;;19.00;99.90;;;;;;4971377;28;19922;-67
2022/10/23 08:48:23;;;;;;;;;;;19.00;99.90;;;;;;4971713;28;20001;-64
2022/10/23 08:50:55;;;;;;;;;;;19.00;99.90;;;;;;4954642;28;19917;-65
2022/10/23 08:53:26;;;;;;;;;;;19.10;99.90;;;;;;4972028;28;20013;-65
2022/10/23 08:55:58;;;;;;;;;;;19.00;99.90;;;;;;4972075;28;19910;-65
2022/10/23 08:58:30;;;;;;;;;;;19.00;99.90;;;;;;4981947;28;19963;-65
2022/10/23 09:00:57;;;;;;;;;;;19.10;99.90;;;;;;4990173;28;19992;-68
2022/10/23 09:03:24;;;;;;;;;;;19.10;99.90;;;;;;4991057;28;19916;-65
2022/10/23 09:05:53;;;;;;;;;;;19.10;99.90;;;;;;4991706;28;20020;-67
2022/10/23 09:08:25;;;;;;;;;;;19.10;99.90;;;;;;4990976;28;19910;-65
2022/10/23 09:11:01;;;;;;;;;;;19.20;99.90;;;;;;4991896;28;20830;-67
2022/10/23 09:13:37;;;;;;;;;;;19.20;99.90;;;;;;4991578;28;19914;-65
2022/10/23 09:16:06;;;;;;;;;;;19.20;99.90;;;;;;4991600;28;19917;-66
2022/10/23 09:18:33;;;;;;;;;;;19.20;99.90;;;;;;4974437;28;19910;-66
2022/10/23 09:21:00;;;;;;;;;;;19.20;99.90;;;;;;4991898;28;20008;-66
2022/10/23 09:23:26;;;;;;;;;;;19.20;99.90;;;;;;4991566;28;20316;-66
2022/10/23 09:25:56;;;;;;;;;;;19.20;99.90;;;;;;4991036;28;20012;-66
2022/10/23 09:28:29;;;;;;;;;;;19.20;99.90;;;;;;4991318;28;19936;-65
2022/10/23 09:31:06;;;;;;;;;;;19.20;99.90;;;;;;4991607;28;19914;-65
2022/10/23 09:33:35;;;;;;;;;;;19.20;99.90;;;;;;4991315;28;19917;-65
2022/10/23 09:36:04;;;;;;;;;;;19.20;99.90;;;;;;4991099;28;19917;-65
2022/10/23 09:38:38;;;;;;;;;;;19.10;99.90;;;;;;4991269;28;20004;-65
2022/10/23 09:41:07;;;;;;;;;;;19.10;99.90;;;;;;4991238;28;19910;-66
2022/10/23 09:43:34;;;;;;;;;;;19.10;99.90;;;;;;4990767;28;19917;-65
2022/10/23 09:46:02;;;;;;;;;;;19.10;99.90;;;;;;4991001;28;19934;-65
2022/10/23 09:48:28;;;;;;;;;;;19.10;99.90;;;;;;4990628;28;19910;-65
2022/10/23 09:50:57;;;;;;;;;;;19.00;99.90;;;;;;4973452;28;19914;-65
2022/10/23 09:53:26;;;;;;;;;;;19.00;99.90;;;;;;4990862;28;19910;-64
2022/10/23 09:55:54;;;;;;;;;;;18.90;99.90;;;;;;4990757;28;20350;-65
2022/10/23 09:58:24;;;;;;;;;;;18.90;99.90;;;;;;4990905;28;20277;-65
2022/10/23 10:00:51;;;;;;;;;;;18.90;99.90;;;;;;4990714;28;19917;-66
2022/10/23 10:03:20;;;;;;;;;;;18.90;99.90;;;;;;4990716;28;19955;-66
2022/10/23 10:05:53;;;;;;;;;;;18.90;99.90;;;;;;4990223;28;19925;-64
2022/10/23 10:08:20;;;;;;;;;;;18.90;99.90;;;;;;4990397;28;19933;-66
2022/10/23 10:10:51;;;;;;;;;;;18.90;99.90;;;;;;4989834;28;19917;-67
2022/10/23 10:13:40;;;;;;;;;;;19.00;99.90;;;;;;4988815;28;20395;-66
2022/10/23 10:16:13;;;;;;;;;;;18.90;99.90;;;;;;4990790;28;19910;-66
2022/10/23 10:18:44;;;;;;;;;;;19.00;99.90;;;;;;4990271;28;19910;-65
2022/10/23 10:21:17;;;;;;;;;;;19.00;99.90;;;;;;4990626;28;20000;-67
2022/10/23 10:23:56;;;;;;;;;;;19.00;99.90;;;;;;4990277;28;19910;-66
2022/10/23 10:26:37;;;;;;;;;;;19.00;99.90;;;;;;4990248;28;20457;-66
2022/10/23 10:29:29;;;;;;;;;;;19.00;99.90;;;;;;4990622;28;19917;-67
2022/10/23 10:31:56;;;;;;;;;;;19.00;99.90;;;;;;4972174;28;19916;-65
2022/10/23 10:34:32;;;;;;;;;;;19.00;99.90;;;;;;4990823;28;20286;-65
2022/10/23 10:37:01;;;;;;;;;;;19.00;99.90;;;;;;4990658;28;19910;-64
2022/10/23 10:39:38;;;;;;;;;;;19.00;99.90;;;;;;4990593;28;19921;-65
2022/10/23 10:42:18;;;;;;;;;;;19.10;99.90;;;;;;4990587;28;20282;-66
2022/10/23 10:45:13;;;;;;;;;;;19.00;99.90;;;;;;4990079;28;19929;-64
2022/10/23 10:47:50;;;;;;;;;;;19.10;99.90;;;;;;4981466;28;19959;-65
2022/10/23 10:50:20;;;;;;;;;;;19.00;99.90;;;;;;4990011;28;19955;-66
2022/10/23 10:52:51;;;;;;;;;;;19.00;99.90;;;;;;4990401;28;20259;-65
2022/10/23 10:55:47;;;;;;;;;;;19.10;99.90;;;;;;4990551;28;19914;-66
2022/10/23 10:58:14;;;;;;;;;;;19.00;99.90;;;;;;4981265;28;19910;-65
2022/10/23 11:00:40;;;;;;;;;;;19.00;99.90;;;;;;4972891;28;20148;-66
2022/10/23 11:03:25;;;;;;;;;;;19.00;99.90;;;;;;4990417;28;19983;-65
2022/10/23 11:05:53;;;;;;;;;;;19.00;99.90;;;;;;4990079;28;20309;-65
2022/10/23 11:08:26;;;;;;;;;;;19.00;99.90;;;;;;4990190;28;19974;-66
2022/10/23 11:10:57;;;;;;;;;;;19.00;99.90;;;;;;4989962;28;20022;-67
2022/10/23 11:13:43;;;;;;;;;;;19.00;99.90;;;;;;4990167;28;19963;-66
2022/10/23 11:16:22;;;;;;;;;;;19.00;99.90;;;;;;4990343;28;19914;-66
2022/10/23 11:19:09;;;;;;;;;;;19.00;99.90;;;;;;4990244;28;19910;-66
2022/10/23 11:21:35;;;;;;;;;;;19.00;99.90;;;;;;4982813;28;19992;-65
2022/10/23 11:24:02;;;;;;;;;;;19.00;99.90;;;;;;4989828;28;19917;-66
2022/10/23 11:26:54;;;;;;;;;;;19.00;99.90;;;;;;4989862;28;19918;-66
2022/10/23 11:29:20;;;;;;;;;;;19.00;99.90;;;;;;4990082;28;19925;-66
2022/10/23 11:32:05;;;;;;;;;;;18.90;99.90;;;;;;4991604;28;19909;-66
2022/10/23 11:34:50;;;;;;;;;;;19.00;99.90;;;;;;4993148;28;19921;-66
2022/10/23 11:37:17;;;;;;;;;;;19.00;99.90;;;;;;4993277;28;20043;-66
2022/10/23 11:39:57;;;;;;;;;;;19.00;99.90;;;;;;4993051;28;20009;-66
2022/10/23 11:42:32;;;;;;;;;;;19.00;99.90;;;;;;4993279;28;19909;-66
2022/10/23 11:44:59;;;;;;;;;;;19.00;99.90;;;;;;4992844;28;19922;-66
2022/10/23 11:47:28;;;;;;;;;;;18.90;99.90;;;;;;4993329;28;19917;-66
2022/10/23 11:50:07;;;;;;;;;;;18.90;99.90;;;;;;4993348;28;20365;-67
2022/10/23 11:52:39;;;;;;;;;;;18.90;99.90;;;;;;4993147;28;19937;-66
2022/10/23 11:55:19;;;;;;;;;;;18.90;99.90;;;;;;4993161;28;20362;-66
2022/10/23 11:58:03;;;;;;;;;;;18.90;99.90;;;;;;4993030;28;19910;-66
2022/10/23 12:00:31;;;;;;;;;;;18.90;99.90;;;;;;4992798;28;19983;-65
2022/10/23 12:02:58;;;;;;;;;;;18.90;99.90;;;;;;4992729;28;20270;-66
2022/10/23 12:05:44;;;;;;;;;;;18.90;99.90;;;;;;4992460;28;19925;-65
2022/10/23 12:08:22;;;;;;;;;;;19.00;99.90;;;;;;4975674;28;19917;-66
2022/10/23 12:10:54;;;;;;;;;;;19.00;99.90;;;;;;4992577;28;20374;-65
2022/10/23 12:13:36;;;;;;;;;;;19.00;99.90;;;;;;4992788;28;19952;-65
2022/10/23 12:16:04;;;;;;;;;;;19.00;99.90;;;;;;4992982;28;20278;-66
2022/10/23 12:18:31;;;;;;;;;;;19.00;99.90;;;;;;4992791;28;19914;-66
2022/10/23 12:20:59;;;;;;;;;;;19.00;99.90;;;;;;4992626;28;19910;-66
2022/10/23 12:23:48;;;;;;;;;;;19.00;99.90;;;;;;4992529;28;20000;-66
2022/10/23 12:26:18;;;;;;;;;;;19.00;99.90;;;;;;4969886;28;19918;-66
2022/10/23 12:28:44;;;;;;;;;;;19.00;99.90;;;;;;4992586;28;20390;-65
2022/10/23 12:31:14;;;;;;;;;;;19.00;99.90;;;;;;4992474;28;19914;-67
2022/10/23 12:33:43;;;;;;;;;;;19.10;99.90;;;;;;4992645;28;19914;-66
2022/10/23 12:36:21;;;;;;;;;;;19.00;99.90;;;;;;4992434;28;20282;-66
2022/10/23 12:38:50;;;;;;;;;;;19.00;99.90;;;;;;4992520;28;19954;-67
2022/10/23 12:41:28;;;;;;;;;;;19.00;99.90;;;;;;4992380;28;19916;-66
2022/10/23 12:43:57;;;;;;;;;;;19.00;99.90;;;;;;4990995;28;19918;-67
2022/10/23 12:46:34;;;;;;;;;;;19.00;99.90;;;;;;4992433;28;20389;-66
2022/10/23 12:49:02;;;;;;;;;;;19.10;99.90;;;;;;4974797;28;19910;-66
2022/10/23 12:51:33;;;;;;;;;;;19.10;99.90;;;;;;4992316;28;20362;-66
2022/10/23 12:54:01;;;;;;;;;;;19.10;99.90;;;;;;4992174;28;19949;-66
2022/10/23 12:56:33;;;;;;;;;;;19.10;99.90;;;;;;4992312;28;19910;-66
2022/10/23 12:59:00;;;;;;;;;;;19.20;99.90;;;;;;4991936;28;19910;-67
2022/10/23 13:01:28;;;;;;;;;;;19.20;99.90;;;;;;4991991;28;19919;-66
2022/10/23 13:04:10;;;;;;;;;;;19.20;99.90;;;;;;4991898;28;19910;-67
2022/10/23 13:06:37;;;;;;;;;;;19.20;99.90;;;;;;4991813;28;20281;-66
2022/10/23 13:09:05;;;;;;;;;;;19.20;99.90;;;;;;4992013;28;19933;-67
2022/10/23 13:11:32;;;;;;;;;;;19.30;99.90;;;;;;4992026;28;19917;-67
2022/10/23 13:13:58;;;;;;;;;;;19.30;99.90;;;;;;4991862;28;20005;-67
2022/10/23 13:16:25;;;;;;;;;;;19.30;99.90;;;;;;4991823;28;20062;-66
2022/10/23 13:18:53;;;;;;;;;;;19.30;99.90;;;;;;4991668;28;19910;-66
2022/10/23 13:21:23;;;;;;;;;;;19.30;99.90;;;;;;4991754;28;19918;-68
2022/10/23 13:23:51;;;;;;;;;;;19.30;99.90;;;;;;4991628;28;19910;-66
2022/10/23 13:26:33;;;;;;;;;;;19.30;99.90;;;;;;4992032;28;20289;-67
2022/10/23 13:29:03;;;;;;;;;;;19.20;99.90;;;;;;4991683;28;19910;-66
2022/10/23 13:31:31;;;;;;;;;;;19.20;99.90;;;;;;4991494;28;19917;-65
2022/10/23 13:34:01;;;;;;;;;;;19.30;99.90;;;;;;4991369;28;20370;-66
2022/10/23 13:36:28;;;;;;;;;;;19.20;99.90;;;;;;4991610;28;19945;-66
2022/10/23 13:39:00;;;;;;;;;;;19.30;99.90;;;;;;4991625;28;20362;-67
2022/10/23 13:41:28;;;;;;;;;;;19.30;99.90;;;;;;4991533;28;20258;-66
2022/10/23 13:43:55;;;;;;;;;;;19.30;99.90;;;;;;4991275;28;19924;-67
2022/10/23 13:46:24;;;;;;;;;;;19.30;99.90;;;;;;4991562;28;19918;-67
2022/10/23 13:48:51;;;;;;;;;;;19.30;99.90;;;;;;4991443;28;20362;-65
2022/10/23 13:51:22;;;;;;;;;;;19.30;99.90;;;;;;4991356;28;19932;-66
2022/10/23 13:53:50;;;;;;;;;;;19.20;99.90;;;;;;4991001;28;19910;-66
2022/10/23 13:56:17;;;;;;;;;;;19.30;99.90;;;;;;4991289;28;20338;-67
2022/10/23 13:58:44;;;;;;;;;;;19.20;99.90;;;;;;4991368;28;20001;-66
2022/10/23 14:01:27;;;;;;;;;;;19.30;99.90;;;;;;4991351;28;20001;-66
2022/10/23 14:03:54;;;;;;;;;;;19.20;99.90;;;;;;4991262;28;20260;-67
2022/10/23 14:06:21;;;;;;;;;;;19.30;99.90;;;;;;4991043;28;19925;-66
2022/10/23 14:08:47;;;;;;;;;;;19.30;99.90;;;;;;4991049;28;20370;-65
2022/10/23 14:11:15;;;;;;;;;;;19.30;99.90;;;;;;4991026;28;19945;-66
2022/10/23 14:13:41;;;;;;;;;;;19.30;99.90;;;;;;4990954;28;19910;-66
2022/10/23 14:16:09;;;;;;;;;;;19.30;99.90;;;;;;4990946;28;19997;-66
2022/10/23 14:18:35;;;;;;;;;;;19.30;99.90;;;;;;4973448;28;19957;-66
2022/10/23 14:21:06;;;;;;;;;;;19.30;99.90;;;;;;4990751;28;19910;-66
2022/10/23 14:23:32;;;;;;;;;;;19.40;99.90;;;;;;4990627;28;19917;-65
2022/10/23 14:26:03;;;;;;;;;;;19.30;99.90;;;;;;4990592;28;19925;-68
2022/10/23 14:28:30;;;;;;;;;;;19.30;99.90;;;;;;4990648;28;20268;-65
2022/10/23 14:30:56;;;;;;;;;;;19.30;99.90;;;;;;4990612;28;19975;-66